Time,TemperatureF,DewpointF,PressureIn,WindDirection,WindDirectionDegrees,WindSpeedMPH,WindSpeedGustMPH,Humidity,HourlyPrecipIn,Conditions,Clouds,dailyrainin,SoftwareType,DateUTC
2013-05-27 00:14:00,41.5,39.0,30.14,West,279,0.0,2.0,90,0.00,,,0.00,weatherlink.com 1.10,2013-05-27 04:14:00,
2013-05-27 00:29:00,41.4,38.0,30.14,West,278,0.0,0.0,88,0.00,,,0.00,weatherlink.com 1.10,2013-05-27 04:29:00,
2013-05-27 00:44:00,40.8,38.0,30.14,West,278,0.0,0.0,89,0.00,,,0.00,weatherlink.com 1.10,2013-05-27 04:44:00,
2013-05-27 01:00:00,40.3,38.0,30.15,West,278,0.0,0.0,90,0.00,,,0.00,weatherlink.com 1.10,2013-05-27 05:00:00,
2013-05-27 01:15:00,39.9,38.0,30.14,West,278,0.0,0.0,91,0.00,,,0.00,weatherlink.com 1.10,2013-05-27 05:15:00,
2013-05-27 01:30:00,39.4,37.0,30.14,West,278,0.0,0.0,92,0.00,,,0.00,weatherlink.com 1.10,2013-05-27 05:30:00,
2013-05-27 01:45:00,39.1,37.0,30.14,West,278,0.0,0.0,92,0.00,,,0.00,weatherlink.com 1.10,2013-05-27 05:45:00,
2013-05-27 02:00:00,38.8,37.0,30.15,West,278,0.0,0.0,93,0.00,,,0.00,weatherlink.com 1.10,2013-05-27 06:00:00,
2013-05-27 02:15:00,38.8,37.0,30.15,WNW,300,0.0,0.0,93,0.00,,,0.00,weatherlink.com 1.10,2013-05-27 06:15:00,
2013-05-27 02:30:00,38.4,37.0,30.15,WNW,297,0.0,0.0,93,0.00,,,0.00,weatherlink.com 1.10,2013-05-27 06:30:00,
2013-05-27 02:45:00,38.4,37.0,30.15,WNW,297,0.0,0.0,94,0.00,,,0.00,weatherlink.com 1.10,2013-05-27 06:45:00,
2013-05-27 03:00:00,38.1,37.0,30.16,WNW,297,0.0,0.0,94,0.00,,,0.00,weatherlink.com 1.10,2013-05-27 07:00:00,
2013-05-27 03:15:00,38.0,37.0,30.16,WNW,297,0.0,0.0,94,0.00,,,0.00,weatherlink.com 1.10,2013-05-27 07:15:00,
2013-05-27 03:31:00,38.0,37.0,30.16,WNW,297,0.0,0.0,94,0.00,,,0.00,weatherlink.com 1.10,2013-05-27 07:31:00,
2013-05-27 03:45:00,37.5,36.0,30.16,WNW,297,0.0,0.0,94,0.00,,,0.00,weatherlink.com 1.10,2013-05-27 07:45:00,
2013-05-27 04:00:00,37.3,36.0,30.16,WNW,297,0.0,0.0,94,0.00,,,0.00,weatherlink.com 1.10,2013-05-27 08:00:00,
2013-05-27 04:15:00,37.4,36.0,30.16,WNW,297,0.0,0.0,95,0.00,,,0.00,weatherlink.com 1.10,2013-05-27 08:15:00,
2013-05-27 04:30:00,37.1,36.0,30.16,WNW,297,0.0,0.0,95,0.00,,,0.00,weatherlink.com 1.10,2013-05-27 08:30:00,
2013-05-27 04:45:00,36.8,36.0,30.16,WNW,297,0.0,0.0,95,0.00,,,0.00,weatherlink.com 1.10,2013-05-27 08:45:00,
2013-05-27 05:00:00,36.7,35.0,30.16,WNW,297,0.0,0.0,95,0.00,,,0.00,weatherlink.com 1.10,2013-05-27 09:00:00,
2013-05-27 05:15:00,36.6,35.0,30.16,WNW,297,0.0,0.0,95,0.00,,,0.00,weatherlink.com 1.10,2013-05-27 09:15:00,
2013-05-27 05:30:00,36.1,35.0,30.17,ENE,58,0.0,0.0,95,0.00,,,0.00,weatherlink.com 1.10,2013-05-27 09:30:00,
2013-05-27 05:45:00,36.2,35.0,30.18,WSW,252,0.0,0.0,95,0.00,,,0.00,weatherlink.com 1.10,2013-05-27 09:45:00,
2013-05-27 06:00:00,36.2,35.0,30.18,WSW,252,0.0,0.0,95,0.00,,,0.00,weatherlink.com 1.10,2013-05-27 10:00:00,
2013-05-27 06:15:00,36.5,35.0,30.18,WSW,252,0.0,0.0,95,0.00,,,0.00,weatherlink.com 1.10,2013-05-27 10:15:00,
2013-05-27 06:30:00,38.4,37.0,30.18,WSW,252,0.0,0.0,95,0.00,,,0.00,weatherlink.com 1.10,2013-05-27 10:30:00,
2013-05-27 06:45:00,41.7,40.0,30.18,WSW,252,0.0,0.0,94,0.00,,,0.00,weatherlink.com 1.10,2013-05-27 10:45:00,
2013-05-27 07:00:00,44.9,43.0,30.18,WSW,252,0.0,0.0,92,0.00,,,0.00,weatherlink.com 1.10,2013-05-27 11:00:00,
2013-05-27 07:15:00,48.2,43.0,30.17,WSW,252,0.0,0.0,83,0.00,,,0.00,weatherlink.com 1.10,2013-05-27 11:15:00,
2013-05-27 07:30:00,50.0,43.0,30.17,WSW,253,0.0,0.0,77,0.00,,,0.00,weatherlink.com 1.10,2013-05-27 11:30:00,
2013-05-27 07:45:00,54.5,44.0,30.18,WSW,253,0.0,0.0,67,0.00,,,0.00,weatherlink.com 1.10,2013-05-27 11:45:00,
2013-05-27 08:00:00,55.5,45.0,30.18,ENE,58,0.0,0.0,68,0.00,,,0.00,weatherlink.com 1.10,2013-05-27 12:00:00,
2013-05-27 08:15:00,56.0,43.0,30.18,East,81,1.0,1.0,63,0.00,,,0.00,weatherlink.com 1.10,2013-05-27 12:15:00,
2013-05-27 08:30:00,57.8,45.0,30.18,East,89,1.0,2.0,62,0.00,,,0.00,weatherlink.com 1.10,2013-05-27 12:30:00,
2013-05-27 08:45:00,59.3,44.0,30.18,ENE,57,2.0,3.0,58,0.00,,,0.00,weatherlink.com 1.10,2013-05-27 12:45:00,
2013-05-27 09:00:00,61.4,43.0,30.17,SE,145,3.0,4.0,51,0.00,,,0.00,weatherlink.com 1.10,2013-05-27 13:00:00,
2013-05-27 09:15:00,62.8,42.0,30.17,East,82,2.0,5.0,46,0.00,,,0.00,weatherlink.com 1.10,2013-05-27 13:15:00,
2013-05-27 09:30:00,63.4,41.0,30.17,ESE,112,1.0,5.0,44,0.00,,,0.00,weatherlink.com 1.10,2013-05-27 13:30:00,
2013-05-27 09:45:00,64.3,41.0,30.16,West,271,4.0,7.0,42,0.00,,,0.00,weatherlink.com 1.10,2013-05-27 13:45:00,
2013-05-27 10:00:00,64.2,42.0,30.16,NW,326,3.0,7.0,44,0.00,,,0.00,weatherlink.com 1.10,2013-05-27 14:00:00,
2013-05-27 10:15:00,64.4,40.0,30.16,SE,142,2.0,5.0,41,0.00,,,0.00,weatherlink.com 1.10,2013-05-27 14:15:00,
2013-05-27 10:30:00,65.1,37.0,30.16,WSW,249,3.0,8.0,36,0.00,,,0.00,weatherlink.com 1.10,2013-05-27 14:30:00,
2013-05-27 10:45:00,65.7,39.0,30.16,WSW,240,3.0,7.0,37,0.00,,,0.00,weatherlink.com 1.10,2013-05-27 14:45:00,
2013-05-27 11:00:00,66.6,40.0,30.16,South,186,2.0,5.0,38,0.00,,,0.00,weatherlink.com 1.10,2013-05-27 15:00:00,
2013-05-27 11:15:00,67.2,39.0,30.15,East,101,1.0,6.0,36,0.00,,,0.00,weatherlink.com 1.10,2013-05-27 15:15:00,
2013-05-27 11:30:00,68.4,39.0,30.15,NW,307,3.0,8.0,34,0.00,,,0.00,weatherlink.com 1.10,2013-05-27 15:30:00,
2013-05-27 11:46:00,68.2,39.0,30.14,West,271,2.0,8.0,34,0.00,,,0.00,weatherlink.com 1.10,2013-05-27 15:46:00,
2013-05-27 12:01:00,69.7,38.0,30.14,WSW,249,1.0,9.0,31,0.00,,,0.00,weatherlink.com 1.10,2013-05-27 16:01:00,
2013-05-27 12:16:00,68.7,38.0,30.13,NW,312,2.0,8.0,33,0.00,,,0.00,weatherlink.com 1.10,2013-05-27 16:16:00,
2013-05-27 12:31:00,69.8,42.0,30.13,SW,232,3.0,8.0,36,0.00,,,0.00,weatherlink.com 1.10,2013-05-27 16:31:00,
2013-05-27 12:46:00,70.9,40.0,30.12,SSW,204,3.0,10.0,33,0.00,,,0.00,weatherlink.com 1.10,2013-05-27 16:46:00,
2013-05-27 13:01:00,71.4,40.0,30.11,SE,127,4.0,8.0,32,0.00,,,0.00,weatherlink.com 1.10,2013-05-27 17:01:00,
2013-05-27 13:16:00,72.0,43.0,30.10,SE,139,3.0,6.0,35,0.00,,,0.00,weatherlink.com 1.10,2013-05-27 17:16:00,
2013-05-27 13:31:00,71.8,41.0,30.10,WNW,283,4.0,8.0,33,0.00,,,0.00,weatherlink.com 1.10,2013-05-27 17:31:00,
2013-05-27 13:46:00,72.5,42.0,30.09,SE,143,6.0,7.0,33,0.00,,,0.00,weatherlink.com 1.10,2013-05-27 17:46:00,
2013-05-27 14:01:00,72.9,42.0,30.09,WSW,250,2.0,8.0,33,0.00,,,0.00,weatherlink.com 1.10,2013-05-27 18:01:00,
2013-05-27 14:16:00,73.1,41.0,30.08,SW,236,1.0,9.0,31,0.00,,,0.00,weatherlink.com 1.10,2013-05-27 18:16:00,
2013-05-27 14:31:00,72.9,41.0,30.08,WNW,291,1.0,11.0,32,0.00,,,0.00,weatherlink.com 1.10,2013-05-27 18:31:00,
2013-05-27 14:46:00,73.3,43.0,30.08,West,262,6.0,7.0,34,0.00,,,0.00,weatherlink.com 1.10,2013-05-27 18:46:00,
2013-05-27 15:01:00,73.1,41.0,30.07,SSW,212,2.0,11.0,32,0.00,,,0.00,weatherlink.com 1.10,2013-05-27 19:01:00,
2013-05-27 15:16:00,74.2,42.0,30.07,SSW,200,1.0,7.0,31,0.00,,,0.00,weatherlink.com 1.10,2013-05-27 19:16:00,
2013-05-27 15:31:00,74.3,42.0,30.06,WSW,245,7.0,9.0,31,0.00,,,0.00,weatherlink.com 1.10,2013-05-27 19:31:00,
2013-05-27 15:46:00,74.2,42.0,30.06,SSE,148,5.0,8.0,32,0.00,,,0.00,weatherlink.com 1.10,2013-05-27 19:46:00,
2013-05-27 16:01:00,74.9,41.0,30.05,South,176,4.0,8.0,30,0.00,,,0.00,weatherlink.com 1.10,2013-05-27 20:01:00,
2013-05-27 16:16:00,75.1,40.0,30.05,SSE,155,6.0,10.0,28,0.00,,,0.00,weatherlink.com 1.10,2013-05-27 20:16:00,
2013-05-27 16:31:00,75.5,41.0,30.05,South,184,3.0,6.0,29,0.00,,,0.00,weatherlink.com 1.10,2013-05-27 20:31:00,
2013-05-27 16:46:00,74.7,43.0,30.04,ESE,111,4.0,12.0,32,0.00,,,0.00,weatherlink.com 1.10,2013-05-27 20:46:00,
2013-05-27 17:01:00,74.2,43.0,30.04,ENE,78,4.0,12.0,33,0.00,,,0.00,weatherlink.com 1.10,2013-05-27 21:01:00,
2013-05-27 17:16:00,73.8,43.0,30.04,SSE,160,5.0,10.0,33,0.00,,,0.00,weatherlink.com 1.10,2013-05-27 21:16:00,
2013-05-27 17:31:00,73.5,42.0,30.05,SE,142,3.0,10.0,32,0.00,,,0.00,weatherlink.com 1.10,2013-05-27 21:31:00,
2013-05-27 17:46:00,73.3,42.0,30.05,East,101,5.0,5.0,33,0.00,,,0.00,weatherlink.com 1.10,2013-05-27 21:46:00,
2013-05-27 18:01:00,72.5,43.0,30.05,ESE,115,4.0,8.0,35,0.00,,,0.00,weatherlink.com 1.10,2013-05-27 22:01:00,
2013-05-27 18:16:00,71.5,42.0,30.04,West,260,0.0,10.0,35,0.00,,,0.00,weatherlink.com 1.10,2013-05-27 22:16:00,
2013-05-27 18:31:00,71.4,42.0,30.05,SSW,213,1.0,6.0,35,0.00,,,0.00,weatherlink.com 1.10,2013-05-27 22:31:00,
2013-05-27 18:46:00,70.6,42.0,30.05,SSW,211,2.0,4.0,36,0.00,,,0.00,weatherlink.com 1.10,2013-05-27 22:46:00,
2013-05-27 19:01:00,70.2,43.0,30.05,SE,135,1.0,3.0,37,0.00,,,0.00,weatherlink.com 1.10,2013-05-27 23:01:00,
2013-05-27 19:17:00,69.4,43.0,30.05,ESE,114,1.0,3.0,39,0.00,,,0.00,weatherlink.com 1.10,2013-05-27 23:17:00,
2013-05-27 19:32:00,68.7,45.0,30.05,ESE,117,1.0,3.0,42,0.00,,,0.00,weatherlink.com 1.10,2013-05-27 23:32:00,
2013-05-27 19:47:00,67.8,44.0,30.05,SE,124,1.0,2.0,43,0.00,,,0.00,weatherlink.com 1.10,2013-05-27 23:47:00,
2013-05-27 20:02:00,66.7,45.0,30.05,SE,127,0.0,1.0,46,0.00,,,0.00,weatherlink.com 1.10,2013-05-28 00:02:00,
2013-05-27 20:17:00,65.0,46.0,30.06,SE,127,0.0,0.0,50,0.00,,,0.00,weatherlink.com 1.10,2013-05-28 00:17:00,
2013-05-27 20:32:00,62.1,47.0,30.06,SE,127,0.0,1.0,59,0.00,,,0.00,weatherlink.com 1.10,2013-05-28 00:32:00,
2013-05-27 20:47:00,59.3,49.0,30.07,SE,127,0.0,1.0,69,0.00,,,0.00,weatherlink.com 1.10,2013-05-28 00:47:00,
2013-05-27 21:02:00,57.0,48.0,30.07,West,260,0.0,1.0,73,0.00,,,0.00,weatherlink.com 1.10,2013-05-28 01:02:00,
2013-05-27 21:17:00,55.8,48.0,30.07,West,260,0.0,0.0,74,0.00,,,0.00,weatherlink.com 1.10,2013-05-28 01:17:00,
2013-05-27 21:32:00,54.9,48.0,30.08,WNW,293,0.0,0.0,77,0.00,,,0.00,weatherlink.com 1.10,2013-05-28 01:32:00,
2013-05-27 21:47:00,53.8,48.0,30.08,WSW,249,0.0,2.0,80,0.00,,,0.00,weatherlink.com 1.10,2013-05-28 01:47:00,
2013-05-27 22:02:00,53.0,47.0,30.09,WSW,257,0.0,1.0,81,0.00,,,0.00,weatherlink.com 1.10,2013-05-28 02:02:00,
2013-05-27 22:17:00,52.5,48.0,30.09,WSW,257,1.0,1.0,84,0.00,,,0.00,weatherlink.com 1.10,2013-05-28 02:17:00,
2013-05-27 22:32:00,51.6,48.0,30.09,WSW,257,0.0,0.0,86,0.00,,,0.00,weatherlink.com 1.10,2013-05-28 02:32:00,
2013-05-27 22:47:00,51.7,48.0,30.09,West,277,0.0,0.0,86,0.00,,,0.00,weatherlink.com 1.10,2013-05-28 02:47:00,
2013-05-27 23:02:00,51.4,48.0,30.10,West,277,0.0,1.0,87,0.00,,,0.00,weatherlink.com 1.10,2013-05-28 03:02:00,
2013-05-27 23:17:00,50.9,47.0,30.10,West,277,1.0,1.0,87,0.00,,,0.00,weatherlink.com 1.10,2013-05-28 03:17:00,
2013-05-27 23:32:00,50.8,47.0,30.10,West,277,0.0,0.0,88,0.00,,,0.00,weatherlink.com 1.10,2013-05-28 03:32:00,
2013-05-27 23:47:00,50.6,47.0,30.10,West,277,0.0,1.0,88,0.00,,,0.00,weatherlink.com 1.10,2013-05-28 03:47:00,